createdAt,value
2019-05-25T00:02:53.257Z,13.65
2019-05-25T00:18:01.994Z,29.70
2019-05-25T00:33:08.991Z,25.57
2019-05-25T00:48:17.279Z,19.70
2019-05-25T01:03:24.830Z,16.40
2019-05-25T01:18:31.888Z,16.82
2019-05-25T01:33:39.351Z,16.48
2019-05-25T01:48:48.281Z,17.50
2019-05-25T02:03:55.918Z,13.20
2019-05-25T02:19:03.361Z,11.68
2019-05-25T02:34:10.550Z,12.60
2019-05-25T03:04:25.840Z,11.90
2019-05-25T03:19:32.846Z,14.30
2019-05-25T03:34:40.777Z,12.98
2019-05-25T03:49:48.613Z,12.88
2019-05-25T04:04:55.265Z,11.90
2019-05-25T04:20:02.240Z,11.78
2019-05-25T04:35:10.732Z,11.33
2019-05-25T04:50:17.986Z,11.97
2019-05-25T05:05:25.708Z,11.63
2019-05-25T05:20:34.152Z,10.38
2019-05-25T05:35:41.447Z,9.50
2019-05-25T05:50:50.701Z,8.88
2019-05-25T06:05:59.148Z,8.20
2019-05-25T06:21:06.578Z,9.40
2019-05-25T06:36:15.286Z,8.53
2019-05-25T06:51:23.138Z,9.43
2019-05-25T07:06:30.453Z,8.40
2019-05-25T07:21:37.280Z,6.03
2019-05-25T07:36:44.314Z,7.00
2019-05-25T07:51:52.390Z,5.00
2019-05-25T08:06:59.055Z,4.05
2019-05-25T08:22:07.672Z,3.33
2019-05-25T08:37:16.139Z,2.80
2019-05-25T08:52:23.623Z,2.95
2019-05-25T09:07:31.562Z,4.10
2019-05-25T09:22:39.124Z,3.60
2019-05-25T09:37:48.092Z,2.65
2019-05-25T09:52:54.732Z,2.60
2019-05-25T10:08:02.401Z,2.45
2019-05-25T10:23:10.850Z,2.02
2019-05-25T10:38:18.773Z,2.55
2019-05-25T10:53:27.418Z,2.55
2019-05-25T11:08:34.557Z,2.47
2019-05-25T11:23:41.622Z,2.35
2019-05-25T11:38:48.573Z,2.25
2019-05-25T11:53:56.093Z,2.42
2019-05-25T12:09:03.336Z,2.10
2019-05-25T12:24:10.649Z,2.47
2019-05-25T12:39:17.782Z,2.35
2019-05-25T12:54:27.486Z,2.20
2019-05-25T13:09:34.507Z,2.50
2019-05-25T13:24:41.404Z,2.52
2019-05-25T13:39:50.191Z,2.90
2019-05-25T13:54:58.204Z,4.35
2019-05-25T14:10:07.882Z,2.52
2019-05-25T14:25:15.678Z,2.80
2019-05-25T14:40:22.800Z,1.92
2019-05-25T14:55:30.421Z,2.60
2019-05-25T15:10:37.296Z,2.37
2019-05-25T15:25:44.193Z,2.67
2019-05-25T15:40:52.051Z,2.90
2019-05-25T15:56:00.686Z,2.80
2019-05-25T16:11:09.557Z,2.95
2019-05-25T16:26:19.304Z,3.27
2019-05-25T16:41:26.498Z,3.08
2019-05-25T16:56:35.159Z,4.55
2019-05-25T17:11:42.869Z,3.85
2019-05-25T17:26:50.017Z,4.33
2019-05-25T17:41:57.156Z,3.58
2019-05-25T17:57:05.318Z,4.28
2019-05-25T18:12:14.099Z,7.00
2019-05-25T18:27:21.211Z,11.73
2019-05-25T18:42:30.667Z,12.20
2019-05-25T18:57:39.823Z,13.28
2019-05-25T19:12:48.137Z,23.57
2019-05-25T19:27:55.772Z,21.00
2019-05-25T19:43:04.593Z,17.62
2019-05-25T19:58:16.053Z,17.30
2019-05-25T20:13:23.181Z,15.95
2019-05-25T20:43:37.154Z,19.92
2019-05-25T20:58:46.194Z,17.75
2019-05-25T21:13:52.934Z,16.95
2019-05-25T21:29:01.112Z,14.65
2019-05-25T21:44:08.692Z,13.85
2019-05-25T21:59:19.119Z,13.75
2019-05-25T22:14:26.523Z,13.83
2019-05-25T22:29:33.642Z,11.63
2019-05-25T22:44:40.607Z,11.65
2019-05-25T22:59:48.911Z,14.50
2019-05-25T23:14:55.973Z,12.10
2019-05-25T23:30:02.983Z,12.70
2019-05-25T23:45:10.668Z,11.90
